createdAt,value
2019-02-04T00:00:24.739Z,0.20
2019-02-04T00:02:53.323Z,0.20
2019-02-04T00:05:21.817Z,0.20
2019-02-04T00:07:50.297Z,0.20
2019-02-04T00:10:18.724Z,0.10
2019-02-04T00:12:47.178Z,0.10
2019-02-04T00:15:16.147Z,0.10
2019-02-04T00:17:44.665Z,0.10
2019-02-04T00:20:13.252Z,0.00
2019-02-04T00:22:41.683Z,0.00
2019-02-04T00:25:10.280Z,0.00
2019-02-04T00:27:38.703Z,0.00
2019-02-04T00:30:13.176Z,0.00
2019-02-04T00:32:41.699Z,0.00
2019-02-04T00:35:10.419Z,-0.10
2019-02-04T00:37:38.940Z,-0.10
2019-02-04T00:40:18.550Z,-0.10
2019-02-04T00:42:47.267Z,-0.10
2019-02-04T00:45:15.899Z,-0.20
2019-02-04T00:47:44.327Z,-0.20
2019-02-04T00:50:23.812Z,-0.20
2019-02-04T00:52:52.296Z,-0.20
2019-02-04T00:55:21.034Z,-0.20
2019-02-04T00:57:49.491Z,-0.20
2019-02-04T01:00:27.036Z,-0.20
2019-02-04T01:02:56.017Z,-0.20
2019-02-04T01:05:24.480Z,-0.10
2019-02-04T01:07:53.327Z,-0.10
2019-02-04T01:10:31.355Z,-0.10
2019-02-04T01:12:59.971Z,-0.20
2019-02-04T01:15:28.647Z,-0.10
2019-02-04T01:17:57.143Z,-0.20
2019-02-04T01:20:27.744Z,-0.20
2019-02-04T01:22:56.933Z,-0.20
2019-02-04T01:25:25.567Z,-0.10
2019-02-04T01:27:54.108Z,-0.10
2019-02-04T01:30:23.633Z,-0.20
2019-02-04T01:32:52.218Z,-0.20
2019-02-04T01:35:20.793Z,-0.20
2019-02-04T01:37:49.477Z,-0.20
2019-02-04T01:40:20.138Z,-0.20
2019-02-04T01:42:48.742Z,-0.20
2019-02-04T01:45:17.229Z,-0.30
2019-02-04T01:47:45.801Z,-0.30
2019-02-04T01:50:16.575Z,-0.30
2019-02-04T01:52:45.101Z,-0.30
2019-02-04T01:55:14.671Z,-0.20
2019-02-04T01:57:44.183Z,-0.30
2019-02-04T02:00:16.016Z,-0.30
2019-02-04T02:02:44.507Z,-0.20
2019-02-04T02:05:13.509Z,-0.20
2019-02-04T02:07:42.039Z,-0.20
2019-02-04T02:10:16.358Z,-0.20
2019-02-04T02:12:44.819Z,-0.20
2019-02-04T02:15:13.578Z,-0.20
2019-02-04T02:17:42.100Z,-0.20
2019-02-04T02:20:13.867Z,-0.20
2019-02-04T02:22:42.442Z,-0.20
2019-02-04T02:25:11.038Z,-0.20
2019-02-04T02:27:39.464Z,-0.20
2019-02-04T02:30:16.828Z,-0.20
2019-02-04T02:32:45.277Z,-0.20
2019-02-04T02:35:13.864Z,-0.20
2019-02-04T02:37:42.384Z,-0.20
2019-02-04T02:40:16.570Z,-0.20
2019-02-04T02:42:44.994Z,-0.30
2019-02-04T02:45:13.584Z,-0.30
2019-02-04T02:47:42.016Z,-0.30
2019-02-04T02:50:12.631Z,-0.30
2019-02-04T02:52:41.128Z,-0.30
2019-02-04T02:55:13.020Z,-0.30
2019-02-04T02:57:41.468Z,-0.30
2019-02-04T03:00:15.957Z,-0.40
2019-02-04T03:02:44.409Z,-0.40
2019-02-04T03:05:15.886Z,-0.40
2019-02-04T03:07:44.464Z,-0.40
2019-02-04T03:10:16.086Z,-0.40
2019-02-04T03:12:44.872Z,-0.30
2019-02-04T03:15:13.773Z,-0.40
2019-02-04T03:17:51.393Z,-0.40
2019-02-04T03:20:12.902Z,-0.40
2019-02-04T03:22:41.365Z,-0.40
2019-02-04T03:25:12.079Z,-0.40
2019-02-04T03:27:40.925Z,-0.40
2019-02-04T03:30:18.428Z,-0.40
2019-02-04T03:32:46.978Z,-0.40
2019-02-04T03:35:15.509Z,-0.40
2019-02-04T03:37:43.951Z,-0.40
2019-02-04T03:40:15.412Z,-0.40
2019-02-04T03:42:44.024Z,-0.40
2019-02-04T03:45:13.284Z,-0.40
2019-02-04T03:47:41.925Z,-0.40
2019-02-04T03:50:12.257Z,-0.40
2019-02-04T03:52:40.773Z,-0.40
2019-02-04T03:55:11.647Z,-0.40
2019-02-04T03:57:40.198Z,-0.50
2019-02-04T04:00:20.214Z,-0.40
2019-02-04T04:02:48.905Z,-0.50
2019-02-04T04:05:17.489Z,-0.40
2019-02-04T04:07:46.455Z,-0.40
2019-02-04T04:10:15.340Z,-0.40
2019-02-04T04:12:43.819Z,-0.40
2019-02-04T04:15:14.529Z,-0.40
2019-02-04T04:17:43.189Z,-0.40
2019-02-04T04:20:16.719Z,-0.40
2019-02-04T04:22:45.583Z,-0.30
2019-02-04T04:25:19.967Z,-0.40
2019-02-04T04:27:48.956Z,-0.40
2019-02-04T04:30:25.316Z,-0.40
2019-02-04T04:32:54.483Z,-0.40
2019-02-04T04:35:22.998Z,-0.40
2019-02-04T04:37:51.815Z,-0.40
2019-02-04T04:40:20.381Z,-0.40
2019-02-04T04:42:48.913Z,-0.40
2019-02-04T04:45:19.910Z,-0.40
2019-02-04T04:47:48.909Z,-0.40
2019-02-04T04:50:17.579Z,-0.40
2019-02-04T04:52:46.280Z,-0.40
2019-02-04T04:55:17.809Z,-0.40
2019-02-04T04:57:46.265Z,-0.40
2019-02-04T05:00:20.607Z,-0.40
2019-02-04T05:02:49.219Z,-0.40
2019-02-04T05:05:17.805Z,-0.40
2019-02-04T05:07:46.309Z,-0.40
2019-02-04T05:10:17.287Z,-0.90
2019-02-04T05:12:45.901Z,-0.30
2019-02-04T05:15:17.364Z,-0.30
2019-02-04T05:17:45.799Z,-0.30
2019-02-04T05:20:16.287Z,-0.30
2019-02-04T05:22:44.915Z,-0.30
2019-02-04T05:25:14.116Z,-0.20
2019-02-04T05:27:42.636Z,-0.20
2019-02-04T05:30:14.019Z,-0.20
2019-02-04T05:32:42.443Z,-0.10
2019-02-04T05:35:10.966Z,-0.10
2019-02-04T05:37:39.518Z,-0.10
2019-02-04T05:40:10.727Z,-0.10
2019-02-04T05:42:39.162Z,-0.10
2019-02-04T05:45:10.525Z,-0.10
2019-02-04T05:47:38.975Z,-0.10
2019-02-04T05:50:10.572Z,-0.10
2019-02-04T05:52:39.063Z,-0.10
2019-02-04T05:55:08.368Z,-0.10
2019-02-04T05:57:36.861Z,-0.10
2019-02-04T06:00:08.400Z,-0.10
2019-02-04T06:02:36.864Z,-0.20
2019-02-04T06:05:08.249Z,-0.20
2019-02-04T06:07:36.783Z,-0.20
2019-02-04T06:10:07.843Z,-0.20
2019-02-04T06:12:36.705Z,-0.20
2019-02-04T06:15:08.351Z,-0.20
2019-02-04T06:17:36.810Z,-0.20
2019-02-04T06:20:19.969Z,-0.20
2019-02-04T06:22:49.335Z,-0.20
2019-02-04T06:25:17.840Z,-0.30
2019-02-04T06:27:46.394Z,-0.30
2019-02-04T06:30:16.426Z,-0.30
2019-02-04T06:32:45.016Z,-0.40
2019-02-04T06:35:15.192Z,-0.40
2019-02-04T06:37:46.756Z,-0.40
2019-02-04T06:40:16.033Z,-0.40
2019-02-04T06:42:44.561Z,-0.40
2019-02-04T06:45:17.943Z,-0.40
2019-02-04T06:47:46.578Z,-0.40
2019-02-04T06:50:16.847Z,0.30
2019-02-04T06:52:45.445Z,-0.40
2019-02-04T06:55:19.331Z,-0.40
2019-02-04T06:57:47.861Z,-0.40
2019-02-04T07:00:17.635Z,-0.40
2019-02-04T07:02:46.235Z,-0.40
2019-02-04T07:05:15.444Z,-0.30
2019-02-04T07:07:44.138Z,-0.30
2019-02-04T07:10:15.615Z,-0.30
2019-02-04T07:12:44.131Z,-0.30
2019-02-04T07:15:12.934Z,-0.30
2019-02-04T07:17:41.504Z,-0.30
2019-02-04T07:20:13.709Z,-0.30
2019-02-04T07:22:42.178Z,-0.30
2019-02-04T07:25:12.913Z,-0.20
2019-02-04T07:27:41.377Z,-0.20
2019-02-04T07:30:13.238Z,-0.20
2019-02-04T07:32:41.676Z,-0.10
2019-02-04T07:35:12.786Z,-0.10
2019-02-04T07:37:41.277Z,0.00
2019-02-04T07:40:18.119Z,0.10
2019-02-04T07:42:46.701Z,0.10
2019-02-04T07:45:15.672Z,0.10
2019-02-04T07:47:44.150Z,0.10
2019-02-04T07:50:12.928Z,0.20
2019-02-04T07:52:41.379Z,0.20
2019-02-04T07:55:11.051Z,0.30
2019-02-04T07:57:39.498Z,0.30
2019-02-04T08:00:14.048Z,0.30
2019-02-04T08:02:42.919Z,0.40
2019-02-04T08:05:11.503Z,0.40
2019-02-04T08:07:40.066Z,0.40
2019-02-04T08:10:13.392Z,0.50
2019-02-04T08:12:41.834Z,0.50
2019-02-04T08:15:18.789Z,0.60
2019-02-04T08:17:47.328Z,0.60
2019-02-04T08:20:15.900Z,0.70
2019-02-04T08:22:44.436Z,0.70
2019-02-04T08:25:17.450Z,0.80
2019-02-04T08:27:45.971Z,0.90
2019-02-04T08:30:32.226Z,0.90
2019-02-04T08:33:00.775Z,1.00
2019-02-04T08:35:30.049Z,1.10
2019-02-04T08:37:58.608Z,1.10
2019-02-04T08:40:27.156Z,1.20
2019-02-04T08:42:56.021Z,1.30
2019-02-04T08:45:24.582Z,1.30
2019-02-04T08:47:53.173Z,1.40
2019-02-04T08:50:26.310Z,1.50
2019-02-04T08:52:55.034Z,1.60
2019-02-04T08:55:23.799Z,1.70
2019-02-04T08:57:52.627Z,1.70
2019-02-04T09:00:25.561Z,1.90
2019-02-04T09:02:54.099Z,2.00
2019-02-04T09:05:24.120Z,2.00
2019-02-04T09:07:52.666Z,2.10
2019-02-04T09:10:31.788Z,2.20
2019-02-04T09:13:00.682Z,2.20
2019-02-04T09:15:29.420Z,2.30
2019-02-04T09:17:58.809Z,2.50
2019-02-04T09:20:27.443Z,2.50
2019-02-04T09:22:55.942Z,2.60
2019-02-04T09:25:27.925Z,2.50
2019-02-04T09:27:58.040Z,2.60
2019-02-04T09:30:27.611Z,2.80
2019-02-04T09:32:58.084Z,2.80
2019-02-04T09:35:26.778Z,2.90
2019-02-04T09:37:55.328Z,3.00
2019-02-04T09:40:29.831Z,3.10
2019-02-04T09:42:58.331Z,3.20
2019-02-04T09:45:27.727Z,3.30
2019-02-04T09:47:56.907Z,3.40
2019-02-04T09:50:37.450Z,3.40
2019-02-04T09:53:06.341Z,3.50
2019-02-04T09:55:37.109Z,3.60
2019-02-04T09:58:05.765Z,3.80
2019-02-04T10:00:35.725Z,3.80
2019-02-04T10:03:05.185Z,3.80
2019-02-04T10:05:33.767Z,3.90
2019-02-04T10:08:02.539Z,3.90
2019-02-04T10:10:32.691Z,4.00
2019-02-04T10:13:01.202Z,4.00
2019-02-04T10:15:38.126Z,4.10
2019-02-04T10:18:07.362Z,4.10
2019-02-04T10:20:36.270Z,4.00
2019-02-04T10:23:05.603Z,4.00
2019-02-04T10:25:40.001Z,4.10
2019-02-04T10:28:09.345Z,4.20
2019-02-04T10:30:38.034Z,4.30
2019-02-04T10:33:06.598Z,4.30
2019-02-04T10:35:35.218Z,4.20
2019-02-04T10:38:04.118Z,4.30
2019-02-04T10:40:32.713Z,4.40
2019-02-04T10:43:01.498Z,4.50
2019-02-04T10:45:30.138Z,4.50
2019-02-04T10:47:59.195Z,4.50
2019-02-04T10:50:45.890Z,4.50
2019-02-04T10:53:07.090Z,4.60
2019-02-04T10:55:35.720Z,4.70
2019-02-04T10:58:06.366Z,4.60
2019-02-04T11:00:35.643Z,4.80
2019-02-04T11:03:05.446Z,4.80
2019-02-04T11:05:42.092Z,4.90
2019-02-04T11:08:12.973Z,5.00
2019-02-04T11:10:42.079Z,5.10
2019-02-04T11:13:12.533Z,5.20
2019-02-04T11:15:41.732Z,5.20
2019-02-04T11:18:10.615Z,5.30
2019-02-04T11:20:40.206Z,5.50
2019-02-04T11:23:09.251Z,5.40
2019-02-04T11:25:37.839Z,5.50
2019-02-04T11:28:07.542Z,5.50
2019-02-04T11:30:39.393Z,5.60
2019-02-04T11:33:08.126Z,5.70
2019-02-04T11:35:36.730Z,5.90
2019-02-04T11:38:05.821Z,6.20
2019-02-04T11:40:36.897Z,6.20
2019-02-04T11:43:05.759Z,6.30
2019-02-04T11:45:34.424Z,6.40
2019-02-04T11:48:04.124Z,6.30
2019-02-04T11:50:32.721Z,6.30
2019-02-04T11:53:01.329Z,6.20
2019-02-04T11:55:29.917Z,6.10
2019-02-04T11:57:58.410Z,6.10
2019-02-04T12:00:29.564Z,6.10
2019-02-04T12:02:59.539Z,6.10
2019-02-04T12:05:28.122Z,6.00
2019-02-04T12:07:56.562Z,6.10
2019-02-04T12:10:44.568Z,6.20
2019-02-04T12:13:13.073Z,6.30
2019-02-04T12:15:41.718Z,6.40
2019-02-04T12:18:10.284Z,6.40
2019-02-04T12:20:39.946Z,6.50
2019-02-04T12:23:08.695Z,6.50
2019-02-04T12:25:37.601Z,6.40
2019-02-04T12:28:06.376Z,6.30
2019-02-04T12:30:37.728Z,6.20
2019-02-04T12:33:08.007Z,6.30
2019-02-04T12:35:36.750Z,6.30
2019-02-04T12:38:05.410Z,6.40
2019-02-04T12:40:34.436Z,6.30
2019-02-04T12:43:02.958Z,6.30
2019-02-04T12:45:40.560Z,6.30
2019-02-04T12:48:09.283Z,6.40
2019-02-04T12:50:37.791Z,6.40
2019-02-04T12:53:06.468Z,6.40
2019-02-04T12:55:35.269Z,6.30
2019-02-04T12:58:05.108Z,6.20
2019-02-04T13:00:33.664Z,6.40
2019-02-04T13:03:02.239Z,6.60
2019-02-04T13:05:42.328Z,6.70
2019-02-04T13:08:12.470Z,6.70
2019-02-04T13:10:40.976Z,7.00
2019-02-04T13:13:12.890Z,7.00
2019-02-04T13:15:41.467Z,7.00
2019-02-04T13:18:10.074Z,6.80
2019-02-04T13:20:39.222Z,6.90
2019-02-04T13:23:08.422Z,6.90
2019-02-04T13:25:36.907Z,6.90
2019-02-04T13:28:08.406Z,7.00
2019-02-04T13:30:37.022Z,7.00
2019-02-04T13:33:05.726Z,7.10
2019-02-04T13:35:34.518Z,7.10
2019-02-04T13:38:03.038Z,7.20
2019-02-04T13:40:31.761Z,7.30
2019-02-04T13:43:00.435Z,7.30
2019-02-04T13:45:29.216Z,7.40
2019-02-04T13:47:57.919Z,7.30
2019-02-04T13:50:26.614Z,7.20
2019-02-04T13:52:55.275Z,7.40
2019-02-04T13:55:32.664Z,7.40
2019-02-04T13:58:01.235Z,7.30
2019-02-04T14:00:30.299Z,7.10
2019-02-04T14:03:00.681Z,7.10
2019-02-04T14:05:31.508Z,6.80
2019-02-04T14:08:00.980Z,6.70
2019-02-04T14:10:32.175Z,6.80
2019-02-04T14:13:00.752Z,7.00
2019-02-04T14:15:29.543Z,7.10
2019-02-04T14:17:58.334Z,7.10
2019-02-04T14:20:27.178Z,7.10
2019-02-04T14:22:55.731Z,7.00
2019-02-04T14:25:24.337Z,7.10
2019-02-04T14:27:52.942Z,7.10
2019-02-04T14:30:33.298Z,7.00
2019-02-04T14:33:01.920Z,6.80
2019-02-04T14:35:30.766Z,6.80
2019-02-04T14:37:59.440Z,6.60
2019-02-04T14:40:28.102Z,6.50
2019-02-04T14:42:59.893Z,6.50
2019-02-04T14:45:44.484Z,6.30
2019-02-04T14:48:21.691Z,6.30
2019-02-04T14:51:01.656Z,6.20
2019-02-04T14:53:54.184Z,6.20
2019-02-04T14:56:37.395Z,6.10
2019-02-04T14:59:12.161Z,6.10
2019-02-04T15:01:55.555Z,6.10
2019-02-04T15:04:27.124Z,6.10
2019-02-04T15:06:58.646Z,6.10
2019-02-04T15:09:38.819Z,6.00
2019-02-04T15:12:16.083Z,6.00
2019-02-04T15:15:11.553Z,6.00
2019-02-04T15:17:43.072Z,6.00
2019-02-04T15:20:44.651Z,6.00
2019-02-04T15:23:37.142Z,6.00
2019-02-04T15:26:11.176Z,6.00
2019-02-04T15:28:45.362Z,6.00
2019-02-04T15:31:19.830Z,6.00
2019-02-04T15:33:54.106Z,6.00
2019-02-04T15:36:41.828Z,5.90
2019-02-04T15:39:19.087Z,5.80
2019-02-04T15:42:09.956Z,5.80
2019-02-04T15:44:53.404Z,5.80
2019-02-04T15:47:45.811Z,5.80
2019-02-04T15:50:23.224Z,5.80
2019-02-04T15:52:51.688Z,5.80
2019-02-04T15:55:20.140Z,5.70
2019-02-04T15:57:48.733Z,5.70
2019-02-04T16:00:17.622Z,5.70
2019-02-04T16:02:46.266Z,5.60
2019-02-04T16:05:14.846Z,5.60
2019-02-04T16:07:43.272Z,5.60
2019-02-04T16:10:14.800Z,5.60
2019-02-04T16:12:43.357Z,5.50
2019-02-04T16:15:14.279Z,5.60
2019-02-04T16:17:43.077Z,5.50
2019-02-04T16:20:17.391Z,5.50
2019-02-04T16:22:57.471Z,5.50
2019-02-04T16:25:16.235Z,5.40
2019-02-04T16:27:44.743Z,5.40
2019-02-04T16:30:18.511Z,5.40
2019-02-04T16:32:47.077Z,5.40
2019-02-04T16:35:19.772Z,5.30
2019-02-04T16:37:49.294Z,5.30
2019-02-04T16:40:19.809Z,5.30
2019-02-04T16:42:48.310Z,5.30
2019-02-04T16:45:22.286Z,5.30
2019-02-04T16:47:51.211Z,5.30
2019-02-04T16:50:21.799Z,5.30
2019-02-04T16:52:50.312Z,5.30
2019-02-04T16:55:18.855Z,5.20
2019-02-04T16:57:47.391Z,5.30
2019-02-04T17:00:27.468Z,5.20
2019-02-04T17:02:56.114Z,5.20
2019-02-04T17:05:25.698Z,5.20
2019-02-04T17:07:54.584Z,5.20
2019-02-04T17:10:25.241Z,5.30
2019-02-04T17:12:53.921Z,5.30
2019-02-04T17:15:25.532Z,5.30
2019-02-04T17:17:53.040Z,5.20
2019-02-04T17:20:24.351Z,5.20
2019-02-04T17:22:53.016Z,5.20
2019-02-04T17:25:21.516Z,5.20
2019-02-04T17:27:50.025Z,5.20
2019-02-04T17:30:21.864Z,5.20
2019-02-04T17:32:50.385Z,5.20
2019-02-04T17:35:18.886Z,5.20
2019-02-04T17:37:47.433Z,5.20
2019-02-04T17:40:17.992Z,5.20
2019-02-04T17:42:46.879Z,5.20
2019-02-04T17:45:17.123Z,5.20
2019-02-04T17:47:47.124Z,5.20
2019-02-04T17:50:17.968Z,5.20
2019-02-04T17:52:46.568Z,5.20
2019-02-04T17:55:19.719Z,5.10
2019-02-04T17:57:48.310Z,5.10
2019-02-04T18:00:21.147Z,5.00
2019-02-04T18:02:49.674Z,5.00
2019-02-04T18:05:18.344Z,4.90
2019-02-04T18:07:46.917Z,4.90
2019-02-04T18:10:17.711Z,4.90
2019-02-04T18:12:46.628Z,4.90
2019-02-04T18:15:20.892Z,4.90
2019-02-04T18:17:49.495Z,4.90
2019-02-04T18:20:18.327Z,5.00
2019-02-04T18:22:46.907Z,5.00
2019-02-04T18:25:19.971Z,5.00
2019-02-04T18:27:48.780Z,5.00
2019-02-04T18:30:26.565Z,5.00
2019-02-04T18:32:55.503Z,5.00
2019-02-04T18:35:24.407Z,5.00
2019-02-04T18:37:52.896Z,5.00
2019-02-04T18:40:23.627Z,5.00
2019-02-04T18:42:52.601Z,5.00
2019-02-04T18:45:26.842Z,5.00
2019-02-04T18:47:55.482Z,5.00
2019-02-04T18:50:24.770Z,5.00
2019-02-04T18:52:53.352Z,5.00
2019-02-04T18:55:24.899Z,5.00
2019-02-04T18:57:53.466Z,5.10
2019-02-04T19:00:26.875Z,5.10
2019-02-04T19:02:55.463Z,5.10
2019-02-04T19:05:26.733Z,5.10
2019-02-04T19:07:55.624Z,5.10
2019-02-04T19:10:24.607Z,5.10
2019-02-04T19:12:53.107Z,5.10
2019-02-04T19:15:26.568Z,5.20
2019-02-04T19:17:57.350Z,5.10
2019-02-04T19:20:26.015Z,5.10
2019-02-04T19:22:54.513Z,5.10
2019-02-04T19:25:23.190Z,5.10
2019-02-04T19:27:52.646Z,5.10
2019-02-04T19:30:27.611Z,5.10
2019-02-04T19:32:56.455Z,5.10
2019-02-04T19:35:25.083Z,5.10
2019-02-04T19:37:53.711Z,5.10
2019-02-04T19:40:22.273Z,5.10
2019-02-04T19:42:50.913Z,5.10
2019-02-04T19:45:21.463Z,5.10
2019-02-04T19:47:50.324Z,5.10
2019-02-04T19:50:24.521Z,5.00
2019-02-04T19:52:53.045Z,5.10
2019-02-04T19:55:22.024Z,5.00
2019-02-04T19:57:50.559Z,5.10
2019-02-04T20:00:20.829Z,5.00
2019-02-04T20:02:50.592Z,5.00
2019-02-04T20:05:21.136Z,5.10
2019-02-04T20:07:49.816Z,5.10
2019-02-04T20:10:19.808Z,5.10
2019-02-04T20:12:48.453Z,5.10
2019-02-04T20:15:19.742Z,5.10
2019-02-04T20:17:48.410Z,5.10
2019-02-04T20:20:16.985Z,5.10
2019-02-04T20:22:45.806Z,5.10
2019-02-04T20:25:17.247Z,5.10
2019-02-04T20:27:45.755Z,5.10
2019-02-04T20:30:23.058Z,5.10
2019-02-04T20:32:51.902Z,5.10
2019-02-04T20:35:20.554Z,5.00
2019-02-04T20:37:48.979Z,5.10
2019-02-04T20:40:20.577Z,5.10
2019-02-04T20:42:49.186Z,5.10
2019-02-04T20:45:18.581Z,5.10
2019-02-04T20:47:48.441Z,5.10
2019-02-04T20:50:19.698Z,5.10
2019-02-04T20:52:48.207Z,5.10
2019-02-04T20:55:16.807Z,5.10
2019-02-04T20:57:45.294Z,5.10
2019-02-04T21:00:19.883Z,5.10
2019-02-04T21:02:48.316Z,5.00
2019-02-04T21:05:17.819Z,5.00
2019-02-04T21:07:46.559Z,5.00
2019-02-04T21:10:17.726Z,5.00
2019-02-04T21:12:46.300Z,5.00
2019-02-04T21:15:17.165Z,5.00
2019-02-04T21:17:45.739Z,5.00
2019-02-04T21:20:22.912Z,5.10
2019-02-04T21:22:51.431Z,5.00
2019-02-04T21:25:20.155Z,5.00
2019-02-04T21:27:49.101Z,5.10
2019-02-04T21:30:25.845Z,5.10
2019-02-04T21:32:54.491Z,5.10
2019-02-04T21:35:23.157Z,5.10
2019-02-04T21:37:51.620Z,5.10
2019-02-04T21:40:20.963Z,5.10
2019-02-04T21:42:49.789Z,5.10
2019-02-04T21:45:20.299Z,5.00
2019-02-04T21:47:48.829Z,5.00
2019-02-04T21:50:22.823Z,5.00
2019-02-04T21:52:51.619Z,5.00
2019-02-04T21:55:20.800Z,5.00
2019-02-04T21:57:49.702Z,5.00
2019-02-04T22:00:21.005Z,5.00
2019-02-04T22:02:49.608Z,5.00
2019-02-04T22:05:21.111Z,5.00
2019-02-04T22:07:49.703Z,5.00
2019-02-04T22:10:20.669Z,5.00
2019-02-04T22:12:49.277Z,5.00
2019-02-04T22:15:17.905Z,5.00
2019-02-04T22:17:46.495Z,4.90
2019-02-04T22:20:16.771Z,4.90
2019-02-04T22:22:45.511Z,4.90
2019-02-04T22:25:19.797Z,4.90
2019-02-04T22:27:47.124Z,4.90
2019-02-04T22:30:18.132Z,4.90
2019-02-04T22:32:46.799Z,4.90
2019-02-04T22:35:15.290Z,4.70
2019-02-04T22:37:43.875Z,4.80
2019-02-04T22:40:18.226Z,4.80
2019-02-04T22:42:46.753Z,4.80
2019-02-04T22:45:16.911Z,4.70
2019-02-04T22:47:45.530Z,4.70
2019-02-04T22:50:22.588Z,4.70
2019-02-04T22:52:51.147Z,4.60
2019-02-04T22:55:31.029Z,4.60
2019-02-04T22:57:50.180Z,4.50
2019-02-04T23:00:44.100Z,4.60
2019-02-04T23:03:13.960Z,4.60
2019-02-04T23:05:42.906Z,4.60
2019-02-04T23:08:11.399Z,4.60
2019-02-04T23:10:39.870Z,4.70
2019-02-04T23:13:08.434Z,4.60
2019-02-04T23:15:36.942Z,4.60
2019-02-04T23:18:05.804Z,4.60
2019-02-04T23:20:34.327Z,4.60
2019-02-04T23:23:02.842Z,4.60
2019-02-04T23:25:42.634Z,4.70
2019-02-04T23:28:01.635Z,4.60
2019-02-04T23:30:30.152Z,4.60
2019-02-04T23:32:58.659Z,4.60
2019-02-04T23:35:27.171Z,4.70
2019-02-04T23:37:55.686Z,4.80
2019-02-04T23:40:24.203Z,4.70
2019-02-04T23:42:53.879Z,4.70
2019-02-04T23:45:23.482Z,4.70
2019-02-04T23:47:52.457Z,4.70
2019-02-04T23:50:20.878Z,4.80
2019-02-04T23:52:49.335Z,4.80
2019-02-04T23:55:17.752Z,4.70
2019-02-04T23:57:46.219Z,4.80
